Time;durP1;ratioP1;P1;durP2;ratioP2;P2;SDS_P1;SDS_P2;PMS_P1;PMS_P2;Temp;Humidity;BMP_temperature;BMP_pressure;BME280_temperature;BME280_humidity;BME280_pressure;Samples;Min_cycle;Max_cycle;Signal;HPM_P1;HPM_P2
2021/12/06 00:02:11;;;;;;;3.90;3.50;;;22.30;31.10;;;;;;5088269;27;20089;-63
2021/12/06 00:04:40;;;;;;;4.45;3.83;;;22.30;31.10;;;;;;5086764;28;20424;-63
2021/12/06 00:07:11;;;;;;;4.45;3.70;;;22.30;31.10;;;;;;5070978;28;20051;-63
2021/12/06 00:09:39;;;;;;;4.38;3.67;;;22.20;31.10;;;;;;5087277;28;20499;-63
2021/12/06 00:12:07;;;;;;;4.43;3.95;;;22.30;31.20;;;;;;5078730;27;20137;-63
2021/12/06 00:14:37;;;;;;;4.22;3.75;;;22.20;31.10;;;;;;5105947;27;20511;-63
2021/12/06 00:17:08;;;;;;;4.95;4.00;;;22.20;31.10;;;;;;5108577;27;20913;-62
2021/12/06 00:19:35;;;;;;;4.28;3.78;;;22.20;31.10;;;;;;5109451;27;20108;-62
2021/12/06 00:22:08;;;;;;;3.28;2.97;;;22.20;31.10;;;;;;5097389;27;20111;-62
2021/12/06 00:24:35;;;;;;;3.85;3.55;;;22.30;31.20;;;;;;5103926;27;20061;-61
2021/12/06 00:27:03;;;;;;;4.15;3.75;;;22.20;31.10;;;;;;5108994;27;20077;-62
2021/12/06 00:29:30;;;;;;;4.55;3.67;;;22.20;31.20;;;;;;5088815;27;20047;-62
2021/12/06 00:31:58;;;;;;;4.80;3.40;;;22.20;31.20;;;;;;5101540;27;20058;-62
2021/12/06 00:34:31;;;;;;;3.78;3.47;;;22.20;31.20;;;;;;5083351;27;20051;-62
2021/12/06 00:37:16;;;;;;;3.83;3.40;;;22.20;31.10;;;;;;5108023;27;20074;-62
2021/12/06 00:39:46;;;;;;;5.05;3.53;;;22.20;31.10;;;;;;5107965;27;20094;-62
2021/12/06 00:42:14;;;;;;;4.55;3.50;;;22.20;31.20;;;;;;5090441;27;20098;-62
2021/12/06 00:44:42;;;;;;;3.55;3.25;;;22.20;31.20;;;;;;5084153;28;20051;-62
2021/12/06 00:47:09;;;;;;;4.28;3.88;;;22.20;31.20;;;;;;5090075;27;20473;-62
2021/12/06 00:49:36;;;;;;;4.00;3.60;;;22.20;31.20;;;;;;5106843;27;20043;-62
2021/12/06 00:52:04;;;;;;;3.53;3.22;;;22.20;31.20;;;;;;5083965;27;20054;-62
2021/12/06 00:54:35;;;;;;;3.78;3.38;;;22.20;31.30;;;;;;5086585;27;20734;-62
2021/12/06 00:57:05;;;;;;;3.40;3.10;;;22.10;31.30;;;;;;5108441;27;20077;-62
2021/12/06 00:59:33;;;;;;;;;;;22.10;31.20;;;;;;5107609;27;20092;-62
2021/12/06 01:02:01;;;;;;;4.28;3.83;;;22.10;31.20;;;;;;5083355;27;21043;-62
2021/12/06 01:04:30;;;;;;;4.22;3.45;;;22.10;31.20;;;;;;5104412;27;20482;-62
2021/12/06 01:06:58;;;;;;;3.90;3.50;;;22.20;31.30;;;;;;5107656;27;20479;-63
2021/12/06 01:09:25;;;;;;;3.97;3.53;;;22.10;31.20;;;;;;5106408;27;20496;-62
2021/12/06 01:11:54;;;;;;;4.07;3.70;;;22.10;31.20;;;;;;5097146;27;20425;-62
2021/12/06 01:14:21;;;;;;;3.92;3.33;;;22.10;31.30;;;;;;5101626;27;20058;-62
2021/12/06 01:16:49;;;;;;;5.00;4.03;;;22.10;31.30;;;;;;5107768;27;20096;-62
2021/12/06 01:19:16;;;;;;;3.90;3.50;;;22.10;31.30;;;;;;5106628;27;20082;-62
2021/12/06 01:21:51;;;;;;;3.75;3.35;;;22.10;31.30;;;;;;5062356;27;20048;-62
2021/12/06 01:24:25;;;;;;;3.35;3.05;;;22.10;31.40;;;;;;5084253;27;20055;-62
2021/12/06 01:27:10;;;;;;;3.67;3.30;;;22.10;31.40;;;;;;5107392;27;20155;-61
2021/12/06 01:33:02;;;;;;;3.28;3.03;;;22.10;31.40;;;;;;5076822;28;20058;-62
2021/12/06 01:40:50;;;;;;;4.18;3.40;;;22.00;31.30;;;;;;5091127;27;20054;-63
2021/12/06 01:43:17;;;;;;;4.07;3.38;;;22.00;31.30;;;;;;5096597;27;20574;-62
2021/12/06 01:45:44;;;;;;;3.45;3.15;;;22.00;31.30;;;;;;5085214;28;20055;-62
2021/12/06 01:48:11;;;;;;;3.67;3.38;;;22.00;31.30;;;;;;5085541;28;20109;-62
2021/12/06 01:50:39;;;;;;;3.47;3.15;;;22.10;31.40;;;;;;5084902;28;20102;-62
2021/12/06 01:53:07;;;;;;;3.30;3.00;;;22.00;31.40;;;;;;5094656;27;20047;-62
2021/12/06 01:55:37;;;;;;;3.25;2.95;;;22.10;31.40;;;;;;5103280;27;20070;-62
2021/12/06 01:58:07;;;;;;;4.10;3.22;;;22.00;31.40;;;;;;5088045;27;20100;-62
2021/12/06 02:00:44;;;;;;;3.38;3.08;;;22.00;31.40;;;;;;5104854;27;20507;-62
2021/12/06 02:03:11;;;;;;;3.80;3.45;;;22.00;31.40;;;;;;5080610;27;20511;-63
2021/12/06 02:05:41;;;;;;;2.75;2.55;;;22.00;31.50;;;;;;5105675;27;20138;-62
2021/12/06 02:08:09;;;;;;;3.08;2.80;;;22.00;31.50;;;;;;5105950;27;20051;-62
2021/12/06 02:10:38;;;;;;;3.28;2.97;;;22.00;31.50;;;;;;5105683;27;20047;-62
2021/12/06 02:13:07;;;;;;;3.65;3.20;;;22.00;31.50;;;;;;5090591;27;20074;-62
2021/12/06 02:15:43;;;;;;;3.13;2.83;;;22.00;31.50;;;;;;5050527;28;20561;-62
2021/12/06 02:18:27;;;;;;;2.78;2.58;;;22.00;31.50;;;;;;5084943;28;20058;-63
2021/12/06 02:21:08;;;;;;;3.30;2.88;;;22.00;31.50;;;;;;5084207;28;20094;-63
2021/12/06 02:23:35;;;;;;;3.00;2.80;;;22.00;32.00;;;;;;5073018;28;20091;-63
2021/12/06 02:26:02;;;;;;;3.42;3.13;;;22.00;31.50;;;;;;5084369;28;20183;-64
2021/12/06 02:28:30;;;;;;;3.20;2.80;;;22.00;31.50;;;;;;5085024;28;20087;-63
2021/12/06 02:30:57;;;;;;;3.38;2.72;;;22.00;31.50;;;;;;5065236;27;20086;-63
2021/12/06 02:33:24;;;;;;;3.00;2.75;;;22.00;32.00;;;;;;5080498;27;20158;-63
2021/12/06 02:35:52;;;;;;;3.10;2.80;;;22.00;31.50;;;;;;5105676;27;20440;-63
2021/12/06 02:38:20;;;;;;;3.28;2.97;;;22.00;31.50;;;;;;5105156;27;20051;-63
2021/12/06 02:40:47;;;;;;;3.38;3.08;;;22.00;31.50;;;;;;5106154;27;20100;-63
2021/12/06 02:43:15;;;;;;;3.47;3.17;;;22.00;31.50;;;;;;5088682;27;20101;-63
2021/12/06 02:45:43;;;;;;;2.83;2.63;;;21.90;31.50;;;;;;5084274;28;20048;-63
2021/12/06 02:48:12;;;;;;;3.25;2.95;;;22.00;31.50;;;;;;5084873;28;20389;-62
2021/12/06 02:50:49;;;;;;;3.42;3.13;;;22.00;31.50;;;;;;5084738;28;20079;-62
2021/12/06 02:53:19;;;;;;;3.22;2.90;;;21.90;31.50;;;;;;5090138;28;20059;-63
2021/12/06 02:55:52;;;;;;;3.05;2.75;;;21.90;31.50;;;;;;5050171;28;20109;-63
2021/12/06 02:58:55;;;;;;;2.70;2.50;;;22.00;31.60;;;;;;5084782;28;20079;-63
2021/12/06 03:01:15;;;;;;;2.90;2.65;;;21.90;31.50;;;;;;5080499;28;20489;-63
2021/12/06 03:03:43;;;;;;;3.92;3.20;;;21.90;31.50;;;;;;5090559;28;20055;-63
2021/12/06 03:06:13;;;;;;;3.25;2.90;;;21.90;31.50;;;;;;5104669;28;20100;-62
2021/12/06 03:08:48;;;;;;;3.78;2.92;;;21.90;31.50;;;;;;5105583;28;20085;-63
2021/12/06 03:11:41;;;;;;;2.83;2.60;;;21.90;31.50;;;;;;5092079;27;20090;-63
2021/12/06 03:14:13;;;;;;;2.88;2.67;;;21.90;31.50;;;;;;5105312;27;20389;-63
2021/12/06 03:16:41;;;;;;;2.60;2.40;;;21.90;31.50;;;;;;5111530;27;20453;-63
2021/12/06 03:19:09;;;;;;;3.50;2.97;;;21.90;31.50;;;;;;5109988;27;20051;-63
2021/12/06 03:21:36;;;;;;;2.60;2.40;;;21.90;31.50;;;;;;5100696;27;20079;-63
2021/12/06 03:24:04;;;;;;;3.10;2.80;;;21.90;31.60;;;;;;5103700;27;20065;-63
2021/12/06 03:26:33;;;;;;;3.00;2.53;;;21.90;31.60;;;;;;5112971;27;20078;-63
2021/12/06 03:29:00;;;;;;;3.00;2.72;;;21.90;31.60;;;;;;5086773;27;20047;-63
2021/12/06 03:31:27;;;;;;;3.17;2.95;;;21.90;31.60;;;;;;5104973;27;20082;-63
2021/12/06 03:33:56;;;;;;;2.90;2.60;;;21.90;31.60;;;;;;5104676;27;20046;-63
2021/12/06 03:36:26;;;;;;;2.72;2.53;;;21.90;31.60;;;;;;5108335;27;20126;-63
2021/12/06 03:38:55;;;;;;;2.80;2.60;;;21.90;31.60;;;;;;5109295;27;20086;-63
2021/12/06 03:41:25;;;;;;;2.70;2.50;;;21.80;31.70;;;;;;5105664;27;20083;-63
2021/12/06 03:43:53;;;;;;;2.80;2.60;;;21.90;31.60;;;;;;5093737;27;20049;-62
2021/12/06 03:46:22;;;;;;;3.28;2.70;;;21.90;31.70;;;;;;5070317;28;20047;-63
2021/12/06 03:48:49;;;;;;;3.05;2.65;;;21.90;31.70;;;;;;5088282;28;20494;-62
2021/12/06 03:51:17;;;;;;;2.90;2.67;;;21.90;31.70;;;;;;5086574;27;20043;-63
2021/12/06 03:53:45;;;;;;;3.85;2.78;;;21.90;31.70;;;;;;5102444;27;20108;-63
2021/12/06 03:56:13;;;;;;;2.47;2.28;;;21.90;31.70;;;;;;5108006;27;20104;-62
2021/12/06 03:58:43;;;;;;;2.08;1.95;;;21.90;31.70;;;;;;5091046;27;20094;-63
2021/12/06 04:01:11;;;;;;;2.55;2.35;;;21.90;31.70;;;;;;5104976;27;20529;-63
2021/12/06 04:03:42;;;;;;;2.67;2.47;;;21.90;31.70;;;;;;5093709;27;20046;-63
2021/12/06 04:06:10;;;;;;;2.40;2.25;;;21.90;31.70;;;;;;5088278;28;20508;-63
2021/12/06 04:08:37;;;;;;;2.60;2.40;;;21.80;31.60;;;;;;5087528;28;20083;-63
2021/12/06 04:11:05;;;;;;;3.70;2.42;;;21.90;31.70;;;;;;5082531;28;20051;-63
2021/12/06 04:13:33;;;;;;;2.53;2.25;;;21.90;31.80;;;;;;5093482;27;20118;-63
2021/12/06 04:16:03;;;;;;;2.53;2.33;;;21.90;31.70;;;;;;5107908;27;20090;-63
2021/12/06 04:18:30;;;;;;;2.90;2.63;;;21.90;31.70;;;;;;5087414;27;20431;-63
2021/12/06 04:20:59;;;;;;;2.60;2.40;;;21.90;31.70;;;;;;5086209;28;20451;-64
2021/12/06 04:23:27;;;;;;;2.30;2.10;;;21.90;31.70;;;;;;5082521;27;20053;-64
2021/12/06 04:25:55;;;;;;;2.42;2.22;;;21.90;31.70;;;;;;5070472;28;20529;-61
2021/12/06 04:28:22;;;;;;;2.45;2.25;;;21.90;31.70;;;;;;5087082;28;20139;-61
2021/12/06 04:30:51;;;;;;;2.33;2.13;;;21.90;31.70;;;;;;5087140;28;20157;-62
2021/12/06 04:33:19;;;;;;;2.42;2.30;;;21.90;31.70;;;;;;5073042;27;20501;-62
2021/12/06 04:35:47;;;;;;;2.60;2.25;;;21.90;31.70;;;;;;5077649;28;20087;-61
2021/12/06 04:38:14;;;;;;;2.25;2.08;;;21.90;31.70;;;;;;5081633;28;20043;-61
2021/12/06 04:40:42;;;;;;;2.58;2.38;;;21.80;31.60;;;;;;5085587;28;20444;-62
2021/12/06 04:43:10;;;;;;;2.47;2.28;;;21.90;31.70;;;;;;5083194;27;20492;-62
2021/12/06 04:45:37;;;;;;;2.42;2.22;;;21.80;31.70;;;;;;5094044;27;20560;-62
2021/12/06 04:48:05;;;;;;;2.30;2.10;;;21.80;31.70;;;;;;5086636;28;20074;-61
2021/12/06 04:50:33;;;;;;;2.08;1.98;;;21.80;31.70;;;;;;5087106;27;20103;-62
2021/12/06 04:53:08;;;;;;;2.20;2.10;;;21.80;31.70;;;;;;5090084;27;20051;-62
2021/12/06 04:55:56;;;;;;;2.50;2.30;;;21.80;31.70;;;;;;5064166;28;20098;-62
2021/12/06 04:58:29;;;;;;;2.10;2.00;;;21.80;31.70;;;;;;5085604;28;20051;-62
2021/12/06 05:01:05;;;;;;;1.95;1.85;;;21.80;31.70;;;;;;5078587;28;20836;-62
2021/12/06 05:03:34;;;;;;;2.10;2.00;;;21.80;31.70;;;;;;5080245;28;20075;-62
2021/12/06 05:06:10;;;;;;;2.55;2.35;;;21.80;31.70;;;;;;5083279;28;20048;-61
2021/12/06 05:08:42;;;;;;;2.65;2.40;;;21.80;32.30;;;;;;5065019;28;20093;-62
2021/12/06 05:11:12;;;;;;;2.65;2.45;;;21.80;31.70;;;;;;5058954;27;20454;-62
2021/12/06 05:13:43;;;;;;;2.00;1.85;;;21.80;31.80;;;;;;5077711;27;20504;-62
2021/12/06 05:16:10;;;;;;;2.38;2.25;;;21.80;31.70;;;;;;5088877;27;20047;-62
2021/12/06 05:18:37;;;;;;;2.47;2.28;;;21.80;31.70;;;;;;5106160;27;20137;-62
2021/12/06 05:21:06;;;;;;;2.35;2.15;;;21.80;31.80;;;;;;5103541;27;20499;-63
2021/12/06 05:23:33;;;;;;;2.40;2.20;;;21.80;31.70;;;;;;5090947;27;20044;-62
2021/12/06 05:26:01;;;;;;;2.42;2.17;;;21.80;31.70;;;;;;5077877;27;20040;-62
2021/12/06 05:28:32;;;;;;;2.10;2.00;;;21.80;31.70;;;;;;5082009;27;20105;-62
2021/12/06 05:31:01;;;;;;;1.83;1.73;;;21.80;31.70;;;;;;5075546;27;20094;-62
2021/12/06 05:33:30;;;;;;;2.33;2.13;;;21.80;31.70;;;;;;5081232;27;20050;-62
2021/12/06 05:36:01;;;;;;;2.40;2.20;;;21.80;31.80;;;;;;5069677;28;20055;-62
2021/12/06 05:38:29;;;;;;;2.38;2.17;;;21.80;31.70;;;;;;5082904;28;20043;-62
2021/12/06 05:40:57;;;;;;;2.15;2.00;;;21.80;31.70;;;;;;5082299;28;20135;-63
2021/12/06 05:43:25;;;;;;;2.10;2.00;;;21.80;31.70;;;;;;5061759;28;20162;-62
2021/12/06 05:45:52;;;;;;;2.30;2.15;;;21.70;31.70;;;;;;5084887;28;20492;-62
2021/12/06 05:48:20;;;;;;;1.70;1.60;;;21.70;31.70;;;;;;5067055;28;20397;-62
2021/12/06 05:50:50;;;;;;;1.67;1.55;;;21.70;31.70;;;;;;5084756;28;20051;-62
2021/12/06 05:53:18;;;;;;;1.92;1.83;;;21.70;31.70;;;;;;5077247;27;20431;-62
2021/12/06 05:55:46;;;;;;;2.25;2.13;;;21.80;31.80;;;;;;5081467;27;20051;-63
2021/12/06 05:58:17;;;;;;;2.03;1.83;;;21.70;31.80;;;;;;5080785;27;20039;-63
2021/12/06 06:00:45;;;;;;;1.70;1.60;;;21.70;31.80;;;;;;5071345;27;20059;-63
2021/12/06 06:03:13;;;;;;;2.03;1.92;;;21.80;31.80;;;;;;5069153;27;20059;-63
2021/12/06 06:05:40;;;;;;;2.00;1.90;;;21.80;31.80;;;;;;5082946;28;20058;-63
2021/12/06 06:08:08;;;;;;;2.25;2.15;;;21.80;31.60;;;;;;5075343;27;20040;-63
2021/12/06 06:10:36;;;;;;;2.38;2.17;;;21.70;31.60;;;;;;5064862;28;20118;-63
2021/12/06 06:13:08;;;;;;;2.72;2.53;;;21.70;31.60;;;;;;5079667;28;20501;-63
2021/12/06 06:15:36;;;;;;;2.40;2.20;;;21.70;31.70;;;;;;5077694;27;20055;-61
2021/12/06 06:18:04;;;;;;;2.10;2.00;;;21.70;31.80;;;;;;5081425;28;20108;-61
2021/12/06 06:20:45;;;;;;;3.08;2.67;;;21.70;32.00;;;;;;5076533;27;20070;-62
2021/12/06 06:23:12;;;;;;;1.90;1.80;;;21.70;32.00;;;;;;5064385;27;20401;-61
2021/12/06 06:25:39;;;;;;;1.85;1.75;;;21.70;31.90;;;;;;5072555;27;20388;-60
2021/12/06 06:28:07;;;;;;;2.10;2.00;;;21.70;31.90;;;;;;5061401;28;20079;-60
2021/12/06 06:30:34;;;;;;;2.97;2.15;;;21.80;32.10;;;;;;5068095;27;20059;-62
2021/12/06 06:33:03;;;;;;;1.85;1.75;;;21.80;32.00;;;;;;5066119;28;20099;-61
2021/12/06 06:35:30;;;;;;;4.05;2.10;;;21.90;32.00;;;;;;5067036;28;20140;-60
2021/12/06 06:37:59;;;;;;;2.60;2.40;;;22.00;31.90;;;;;;5065857;27;20082;-61
2021/12/06 06:40:26;;;;;;;2.28;2.08;;;22.00;31.80;;;;;;5067685;27;20048;-61
2021/12/06 06:47:18;;;;;;;2.40;2.20;;;22.10;31.50;;;;;;5113603;28;20046;-62
2021/12/06 06:49:45;;;;;;;3.80;2.20;;;22.30;32.10;;;;;;5113944;28;20445;-62
2021/12/06 06:52:13;;;;;;;2.33;2.13;;;22.30;32.60;;;;;;5112758;28;20043;-62
2021/12/06 06:54:41;;;;;;;1.85;1.67;;;22.40;32.50;;;;;;5095190;28;20048;-64
2021/12/06 06:57:09;;;;;;;4.32;2.10;;;22.40;32.10;;;;;;5113650;28;20455;-61
2021/12/06 06:59:37;;;;;;;2.47;2.22;;;22.50;32.10;;;;;;5114048;28;20108;-63
2021/12/06 07:02:04;;;;;;;2.55;2.35;;;22.50;32.00;;;;;;5112720;28;20417;-64
2021/12/06 07:04:32;;;;;;;2.70;2.30;;;22.60;31.80;;;;;;5112933;28;20502;-64
2021/12/06 07:07:00;;;;;;;2.80;2.25;;;22.70;32.20;;;;;;5113480;28;20047;-62
2021/12/06 07:09:28;;;;;;;2.58;2.17;;;22.80;32.50;;;;;;5113391;28;20135;-62
2021/12/06 07:11:55;;;;;;;2.67;2.20;;;22.90;32.90;;;;;;5112748;28;20097;-63
2021/12/06 07:14:22;;;;;;;1.90;1.80;;;23.00;33.20;;;;;;5113006;28;20136;-61
2021/12/06 07:16:49;;;;;;;2.20;2.00;;;23.00;33.20;;;;;;5114149;28;20391;-64
2021/12/06 07:19:17;;;;;;;2.45;2.03;;;23.10;33.30;;;;;;5110731;28;20044;-59
2021/12/06 07:21:57;;;;;;;2.22;2.00;;;23.20;33.10;;;;;;5059316;28;20424;-65
2021/12/06 07:24:25;;;;;;;3.50;2.10;;;23.30;33.00;;;;;;5057590;28;20146;-64
2021/12/06 07:26:53;;;;;;;2.83;2.33;;;23.30;32.90;;;;;;5062887;28;20047;-62
2021/12/06 07:29:20;;;;;;;4.40;2.67;;;23.40;32.50;;;;;;5067605;28;20499;-62
2021/12/06 07:31:48;;;;;;;4.47;2.65;;;23.50;32.30;;;;;;5057534;28;20059;-62
2021/12/06 07:34:15;;;;;;;6.03;2.30;;;23.50;32.20;;;;;;5041301;28;20044;-61
2021/12/06 07:36:42;;;;;;;4.25;2.28;;;23.50;32.30;;;;;;5065364;27;20066;-62
2021/12/06 07:39:10;;;;;;;2.63;2.00;;;23.60;32.50;;;;;;5066677;28;21480;-64
2021/12/06 07:41:38;;;;;;;3.85;2.60;;;23.60;32.40;;;;;;5057894;28;20110;-61
2021/12/06 07:44:05;;;;;;;4.65;2.70;;;23.70;32.50;;;;;;5058759;28;20105;-63
2021/12/06 07:46:32;;;;;;;2.30;2.10;;;23.70;32.50;;;;;;5047683;28;20055;-62
2021/12/06 07:49:00;;;;;;;5.32;2.55;;;23.80;32.50;;;;;;5070548;28;20044;-68
2021/12/06 07:51:29;;;;;;;2.63;2.42;;;23.80;32.30;;;;;;5055276;28;20056;-68
2021/12/06 07:53:58;;;;;;;7.43;2.50;;;23.90;32.30;;;;;;5054465;28;20313;-70
2021/12/06 07:56:26;;;;;;;2.78;2.33;;;23.90;32.10;;;;;;5061915;28;20055;-67
2021/12/06 07:58:53;;;;;;;2.60;2.40;;;23.90;32.30;;;;;;5064822;27;20087;-67
2021/12/06 08:01:21;;;;;;;3.75;2.22;;;24.00;32.20;;;;;;5068464;27;20052;-64
2021/12/06 08:03:49;;;;;;;3.00;2.70;;;24.10;31.80;;;;;;5070314;27;20048;-67
2021/12/06 08:06:16;;;;;;;2.90;2.70;;;24.10;31.60;;;;;;5074018;27;20418;-68
2021/12/06 08:08:44;;;;;;;4.78;2.33;;;24.10;31.60;;;;;;5054886;28;20083;-64
2021/12/06 08:11:16;;;;;;;3.63;1.98;;;24.10;31.30;;;;;;5070043;27;20071;-64
2021/12/06 08:13:46;;;;;;;10.00;2.42;;;24.20;31.30;;;;;;5064929;27;20071;-65
2021/12/06 08:16:18;;;;;;;2.58;2.38;;;24.20;31.60;;;;;;5069766;27;20051;-66
2021/12/06 08:18:47;;;;;;;2.75;2.13;;;24.30;31.90;;;;;;5069009;27;20092;-68
2021/12/06 08:21:16;;;;;;;3.05;2.40;;;24.30;32.10;;;;;;5062200;27;20129;-69
2021/12/06 08:23:43;;;;;;;1.98;1.88;;;24.30;31.80;;;;;;5061374;27;20823;-66
2021/12/06 08:26:13;;;;;;;2.85;2.60;;;24.40;31.50;;;;;;5073883;28;20388;-65
2021/12/06 08:28:40;;;;;;;2.13;2.00;;;24.40;31.20;;;;;;5056946;28;20044;-68
2021/12/06 08:31:09;;;;;;;3.28;2.97;;;24.40;31.00;;;;;;5073861;27;20058;-68
2021/12/06 08:33:38;;;;;;;2.45;2.25;;;24.50;31.00;;;;;;5060495;27;20066;-68
2021/12/06 08:36:08;;;;;;;2.90;2.38;;;24.50;30.90;;;;;;5073166;27;20843;-66
2021/12/06 08:38:38;;;;;;;2.47;2.00;;;24.50;30.80;;;;;;5056729;28;20072;-66
2021/12/06 08:41:09;;;;;;;3.53;2.22;;;24.60;30.80;;;;;;5076187;27;20105;-66
2021/12/06 08:43:38;;;;;;;3.70;2.63;;;24.60;30.90;;;;;;5065368;27;20058;-66
2021/12/06 08:46:16;;;;;;;3.63;2.22;;;24.70;31.30;;;;;;5072989;27;20058;-66
2021/12/06 08:48:45;;;;;;;3.65;2.10;;;24.70;31.10;;;;;;5074869;27;20063;-65
2021/12/06 08:51:22;;;;;;;3.65;2.65;;;24.70;31.40;;;;;;5066948;27;20059;-66
2021/12/06 08:53:50;;;;;;;2.92;2.67;;;24.80;31.00;;;;;;5066050;27;20664;-67
2021/12/06 08:56:17;;;;;;;2.63;2.28;;;24.80;31.00;;;;;;5075971;27;20138;-65
2021/12/06 08:58:45;;;;;;;2.53;2.33;;;24.90;31.30;;;;;;5075474;27;21458;-66
2021/12/06 09:01:13;;;;;;;3.67;2.70;;;24.90;31.20;;;;;;5052824;27;20052;-67
2021/12/06 09:04:00;;;;;;;2.50;2.30;;;24.90;31.30;;;;;;5067633;27;20053;-67
2021/12/06 09:06:28;;;;;;;2.92;2.70;;;25.00;31.20;;;;;;5076649;27;20055;-66
2021/12/06 09:08:55;;;;;;;3.15;2.65;;;25.10;31.30;;;;;;5074367;27;20054;-66
2021/12/06 09:11:23;;;;;;;5.13;2.97;;;25.10;31.20;;;;;;5068919;27;20051;-67
2021/12/06 09:13:50;;;;;;;4.10;2.60;;;25.10;31.10;;;;;;5062984;27;20051;-68
2021/12/06 09:16:17;;;;;;;3.42;2.60;;;25.20;31.00;;;;;;5071714;27;20084;-65
2021/12/06 09:18:45;;;;;;;3.88;3.22;;;25.20;30.90;;;;;;5071510;28;20485;-66
2021/12/06 09:21:20;;;;;;;4.95;2.97;;;25.20;30.80;;;;;;5070510;27;20158;-66
2021/12/06 09:23:49;;;;;;;2.63;2.42;;;25.20;30.70;;;;;;5063518;27;20051;-67
2021/12/06 09:26:16;;;;;;;3.75;2.60;;;25.10;30.80;;;;;;5074299;27;20107;-66
2021/12/06 09:28:44;;;;;;;3.05;2.75;;;25.10;30.90;;;;;;5071183;27;20044;-65
2021/12/06 09:31:11;;;;;;;3.22;2.35;;;25.10;31.10;;;;;;5069326;27;20047;-66
2021/12/06 09:33:39;;;;;;;3.70;2.53;;;25.00;31.10;;;;;;5090642;27;20059;-66
2021/12/06 09:36:06;;;;;;;2.58;2.38;;;25.00;31.10;;;;;;5115277;28;20151;-67
2021/12/06 09:38:38;;;;;;;2.50;2.30;;;25.00;31.20;;;;;;5097502;28;20132;-68
2021/12/06 09:41:11;;;;;;;2.65;2.45;;;24.90;31.20;;;;;;5114733;28;20161;-68
2021/12/06 09:43:40;;;;;;;2.78;2.58;;;24.90;31.30;;;;;;5096601;28;20121;-68
2021/12/06 09:46:12;;;;;;;2.58;2.17;;;24.90;31.40;;;;;;5114723;28;20052;-65
2021/12/06 09:48:42;;;;;;;3.10;2.90;;;24.90;31.40;;;;;;5114522;28;20048;-65
2021/12/06 09:51:14;;;;;;;4.32;2.25;;;24.80;31.40;;;;;;5114605;28;20047;-65
2021/12/06 09:53:46;;;;;;;3.95;2.90;;;24.80;31.40;;;;;;5096127;28;20097;-65
2021/12/06 09:56:18;;;;;;;2.55;2.35;;;24.80;31.30;;;;;;5114244;28;20051;-66
2021/12/06 09:58:46;;;;;;;2.95;2.65;;;24.70;31.10;;;;;;5089939;27;20044;-66
2021/12/06 10:01:21;;;;;;;4.22;2.45;;;24.70;31.00;;;;;;5066199;27;20142;-65
2021/12/06 10:03:51;;;;;;;3.13;2.80;;;24.70;31.20;;;;;;5063523;27;20390;-65
2021/12/06 10:06:20;;;;;;;7.97;2.60;;;24.70;31.40;;;;;;5073443;27;20138;-66
2021/12/06 10:08:50;;;;;;;2.22;2.03;;;24.70;31.60;;;;;;5067255;28;20142;-65
2021/12/06 10:11:20;;;;;;;6.57;2.80;;;24.70;31.80;;;;;;5070615;27;20106;-67
2021/12/06 10:13:49;;;;;;;2.08;1.98;;;24.70;31.80;;;;;;5062986;27;20067;-67
2021/12/06 10:16:19;;;;;;;2.78;2.25;;;24.60;31.60;;;;;;5077176;27;20547;-66
2021/12/06 10:18:46;;;;;;;2.53;2.33;;;24.60;31.70;;;;;;5072410;27;20047;-66
2021/12/06 10:21:14;;;;;;;2.30;2.10;;;24.70;31.90;;;;;;5070538;27;20075;-67
2021/12/06 10:23:43;;;;;;;3.00;2.40;;;24.60;31.90;;;;;;5057933;27;21266;-69
2021/12/06 10:26:13;;;;;;;2.22;2.00;;;24.70;31.90;;;;;;5071686;27;20143;-67
2021/12/06 10:28:43;;;;;;;2.90;1.98;;;24.60;31.90;;;;;;5070860;28;20165;-66
2021/12/06 10:31:13;;;;;;;4.85;2.30;;;24.60;31.80;;;;;;5065063;27;20121;-66
2021/12/06 10:33:47;;;;;;;2.25;2.05;;;24.70;31.90;;;;;;5067200;27;20074;-65
2021/12/06 10:36:17;;;;;;;2.17;1.98;;;24.60;32.00;;;;;;5070228;27;20078;-68
2021/12/06 10:38:53;;;;;;;2.17;2.03;;;24.70;32.20;;;;;;5053902;27;20459;-64
2021/12/06 10:41:29;;;;;;;2.08;1.88;;;24.70;32.20;;;;;;5066388;27;20349;-66
2021/12/06 10:44:00;;;;;;;4.85;2.35;;;24.70;32.10;;;;;;5051866;28;20511;-65
2021/12/06 10:46:28;;;;;;;2.22;2.03;;;24.70;32.20;;;;;;5070846;28;20055;-66
2021/12/06 10:48:59;;;;;;;2.13;1.85;;;24.70;32.20;;;;;;5071016;28;20051;-65
2021/12/06 10:51:30;;;;;;;3.20;1.85;;;24.70;32.00;;;;;;5067012;28;20450;-67
2021/12/06 10:54:17;;;;;;;2.08;1.90;;;24.80;32.10;;;;;;5070067;27;20672;-68
2021/12/06 10:56:48;;;;;;;2.80;1.98;;;24.70;31.90;;;;;;5071810;28;20109;-69
2021/12/06 10:59:22;;;;;;;2.75;2.00;;;24.70;31.70;;;;;;5072232;28;20508;-69
2021/12/06 11:01:53;;;;;;;2.53;2.33;;;24.80;31.70;;;;;;5068551;28;20071;-66
2021/12/06 11:04:25;;;;;;;2.28;2.00;;;24.80;31.60;;;;;;5049909;28;20493;-69
2021/12/06 11:06:55;;;;;;;1.60;1.50;;;24.80;31.50;;;;;;5071247;28;20084;-69
2021/12/06 11:09:28;;;;;;;2.92;2.00;;;24.80;31.40;;;;;;5078242;28;20048;-69
2021/12/06 11:11:59;;;;;;;2.35;2.15;;;24.90;31.20;;;;;;5051138;28;20775;-66
2021/12/06 11:14:31;;;;;;;1.92;1.77;;;24.80;31.10;;;;;;5067019;28;20130;-66
2021/12/06 11:17:02;;;;;;;1.70;1.60;;;24.90;31.00;;;;;;5068406;28;20956;-65
2021/12/06 11:19:31;;;;;;;1.95;1.85;;;24.90;30.90;;;;;;5073529;28;20075;-66
2021/12/06 11:22:08;;;;;;;1.80;1.70;;;24.90;30.60;;;;;;5050820;28;20054;-65
2021/12/06 11:24:39;;;;;;;2.72;2.20;;;24.90;30.50;;;;;;5052944;28;20734;-66
2021/12/06 11:27:24;;;;;;;2.08;1.92;;;24.90;30.60;;;;;;5057992;28;20047;-64
2021/12/06 11:30:03;;;;;;;1.95;1.60;;;24.90;30.70;;;;;;5056703;28;20066;-65
2021/12/06 11:32:43;;;;;;;2.20;2.00;;;24.90;30.60;;;;;;5067261;27;20415;-65
2021/12/06 11:35:17;;;;;;;1.65;1.55;;;24.90;30.40;;;;;;5056338;28;20098;-65
2021/12/06 11:37:52;;;;;;;3.20;2.90;;;24.90;30.40;;;;;;5079597;27;20056;-65
2021/12/06 11:40:29;;;;;;;2.88;2.58;;;24.60;28.70;;;;;;5071714;28;20044;-66
2021/12/06 11:43:03;;;;;;;2.10;2.00;;;24.00;28.50;;;;;;5051148;27;20055;-65
2021/12/06 11:45:46;;;;;;;2.10;2.00;;;23.80;30.00;;;;;;5079444;27;20066;-66
2021/12/06 11:48:16;;;;;;;2.08;1.85;;;23.80;30.30;;;;;;5074383;27;20092;-67
2021/12/06 11:51:11;;;;;;;2.13;1.92;;;23.80;30.50;;;;;;5074725;27;20052;-67
2021/12/06 11:53:49;;;;;;;2.70;1.85;;;23.90;30.70;;;;;;5066899;28;20103;-67
2021/12/06 11:56:21;;;;;;;2.10;1.90;;;24.00;30.70;;;;;;5072728;27;20510;-66
2021/12/06 11:58:55;;;;;;;2.53;2.33;;;24.10;30.80;;;;;;5072740;27;20136;-66
2021/12/06 12:01:33;;;;;;;2.67;2.28;;;24.10;30.90;;;;;;5071858;27;20052;-69
2021/12/06 12:04:04;;;;;;;2.60;2.40;;;24.20;30.70;;;;;;5070821;28;20492;-66
2021/12/06 12:06:35;;;;;;;2.30;2.10;;;24.30;30.80;;;;;;5071980;28;20390;-66
2021/12/06 12:09:23;;;;;;;7.63;2.22;;;24.30;30.80;;;;;;5057953;27;20492;-67
2021/12/06 12:12:22;;;;;;;2.20;2.00;;;24.30;30.80;;;;;;5068907;27;20134;-68
2021/12/06 12:14:55;;;;;;;2.42;1.92;;;24.40;30.80;;;;;;5046183;27;20070;-68
2021/12/06 12:17:34;;;;;;;2.45;2.17;;;24.40;30.80;;;;;;5071924;27;20048;-66
2021/12/06 12:20:06;;;;;;;2.88;2.35;;;24.40;30.80;;;;;;5058708;27;20774;-66
2021/12/06 12:22:35;;;;;;;2.30;2.17;;;24.40;30.70;;;;;;5065210;27;20047;-66
2021/12/06 12:25:09;;;;;;;3.83;3.00;;;24.40;30.70;;;;;;5052239;28;20224;-69
2021/12/06 12:27:53;;;;;;;2.83;2.63;;;24.50;30.60;;;;;;5074798;27;20048;-67
2021/12/06 12:30:20;;;;;;;3.10;2.72;;;24.50;30.70;;;;;;5070728;28;20129;-67
2021/12/06 12:32:48;;;;;;;4.25;2.80;;;24.50;30.70;;;;;;5065520;27;20161;-67
2021/12/06 12:35:16;;;;;;;3.47;2.92;;;24.50;30.70;;;;;;5069307;28;20120;-66
2021/12/06 12:37:45;;;;;;;4.13;3.20;;;24.50;30.70;;;;;;5075684;27;20043;-68
2021/12/06 12:40:18;;;;;;;3.55;3.25;;;24.50;30.60;;;;;;5074530;27;20043;-67
2021/12/06 12:43:01;;;;;;;5.38;3.30;;;24.50;30.60;;;;;;5065734;27;20524;-67
2021/12/06 12:45:37;;;;;;;2.63;2.42;;;24.50;30.60;;;;;;5051006;28;20505;-67
2021/12/06 12:48:05;;;;;;;2.78;2.58;;;24.50;30.60;;;;;;5063854;28;20546;-67
2021/12/06 12:50:32;;;;;;;2.80;2.50;;;24.50;30.70;;;;;;5069019;27;20496;-66
2021/12/06 12:53:14;;;;;;;3.03;2.72;;;24.50;30.80;;;;;;5057776;27;20075;-69
2021/12/06 12:55:49;;;;;;;2.58;2.38;;;24.50;30.90;;;;;;5069885;27;20561;-68
2021/12/06 12:58:25;;;;;;;2.20;2.00;;;24.50;30.70;;;;;;5072687;28;20546;-68
2021/12/06 13:00:59;;;;;;;2.60;2.40;;;24.50;30.70;;;;;;5068518;27;20091;-68
2021/12/06 13:03:33;;;;;;;2.58;2.38;;;24.50;30.80;;;;;;5057635;27;20564;-66
2021/12/06 13:06:23;;;;;;;2.50;2.30;;;24.40;30.80;;;;;;5072404;27;20132;-68
2021/12/06 13:09:06;;;;;;;3.70;1.98;;;24.40;30.80;;;;;;5059798;27;20097;-65
2021/12/06 13:12:02;;;;;;;2.00;1.90;;;24.40;30.80;;;;;;5064211;27;20127;-62
2021/12/06 13:14:38;;;;;;;5.13;3.90;;;24.40;30.90;;;;;;5063897;28;20136;-64
2021/12/06 13:17:10;;;;;;;3.40;3.08;;;24.20;28.60;;;;;;5069545;27;20665;-62
2021/12/06 13:19:49;;;;;;;3.60;2.90;;;24.10;29.80;;;;;;5070594;27;20059;-61